createdAt,value
2023-05-02T00:01:53.426Z,101738.34
2023-05-02T00:04:26.689Z,101737.28
2023-05-02T00:07:06.683Z,101739.56
2023-05-02T00:09:33.889Z,101721.19
2023-05-02T00:27:30.396Z,101728.38
2023-05-02T00:30:07.383Z,101726.63
2023-05-02T00:32:37.278Z,101733.69
2023-05-02T00:35:19.841Z,101758.41
2023-05-02T00:37:47.192Z,101767.63
2023-05-02T00:49:38.566Z,101736.22
2023-05-02T00:55:08.393Z,101744.59
2023-05-02T01:00:28.271Z,101735.16
2023-05-02T01:03:34.559Z,101740.22
2023-05-02T01:06:31.479Z,101772.84
2023-05-02T01:09:33.073Z,101735.56
2023-05-02T01:12:44.168Z,101738.13
2023-05-02T01:15:22.879Z,101748.94
2023-05-02T01:18:09.537Z,101748.19
2023-05-02T01:20:43.552Z,101736.44
2023-05-02T01:23:31.459Z,101737.25
2023-05-02T01:29:38.502Z,101745.53
2023-05-02T01:42:31.583Z,101770.50
2023-05-02T01:45:26.560Z,101746.22
2023-05-02T01:47:56.823Z,101773.75
2023-05-02T01:53:41.249Z,101768.53
2023-05-02T01:56:18.607Z,101768.75
2023-05-02T02:06:16.219Z,101801.66
2023-05-02T02:08:45.618Z,101775.31
2023-05-02T02:18:08.624Z,101779.13
2023-05-02T02:20:36.755Z,101787.50
2023-05-02T02:23:15.523Z,101783.09
2023-05-02T02:25:46.260Z,101825.84
2023-05-02T02:28:38.005Z,101791.78
2023-05-02T02:31:07.884Z,101824.59
2023-05-02T02:39:48.644Z,101817.50
2023-05-02T02:42:56.403Z,101853.44
2023-05-02T02:45:49.114Z,101822.03
2023-05-02T02:55:25.463Z,101845.59
2023-05-02T02:58:32.432Z,101854.63
2023-05-02T03:01:25.908Z,101857.34
2023-05-02T03:04:04.537Z,101861.06
2023-05-02T03:06:42.761Z,101865.28
2023-05-02T03:09:22.257Z,101855.19
2023-05-02T03:12:16.254Z,101858.19
2023-05-02T03:15:37.110Z,101895.91
2023-05-02T03:28:16.533Z,101876.13
2023-05-02T03:30:44.802Z,101890.03
2023-05-02T03:43:48.543Z,101937.69
2023-05-02T03:46:30.472Z,101914.00
2023-05-02T04:49:23.257Z,102045.53
2023-05-02T04:51:52.271Z,102035.09
2023-05-02T04:54:29.306Z,102061.38
2023-05-02T04:56:56.460Z,102032.47
2023-05-02T04:59:32.860Z,102043.09
2023-05-02T05:05:58.857Z,102068.31
2023-05-02T05:08:30.839Z,102069.25
2023-05-02T05:11:20.335Z,102074.69
2023-05-02T05:13:50.469Z,102085.38
2023-05-02T05:29:53.254Z,102143.56
2023-05-02T05:35:13.298Z,102135.81
2023-05-02T05:37:52.563Z,102152.53
2023-05-02T05:40:20.008Z,102141.75
2023-05-02T05:49:12.813Z,102149.72
2023-05-02T05:51:49.274Z,102162.75
2023-05-02T05:54:24.173Z,102157.22
2023-05-02T05:56:56.856Z,102158.41
2023-05-02T05:59:34.961Z,102178.28
2023-05-02T06:02:05.782Z,102185.56
2023-05-02T06:07:22.011Z,102181.41
2023-05-02T06:26:20.339Z,102221.00
2023-05-02T06:28:49.608Z,102205.50
2023-05-02T06:34:39.431Z,102214.81
2023-05-02T06:53:23.249Z,102253.16
2023-05-02T06:59:47.402Z,102294.91
2023-05-02T07:17:42.149Z,102291.47
2023-05-02T07:56:30.440Z,102347.38
2023-05-02T08:16:09.362Z,102355.25
2023-05-02T08:35:01.230Z,102360.84
2023-05-02T08:45:36.483Z,102408.63
2023-05-02T08:49:10.317Z,102420.41
2023-05-02T08:55:42.361Z,102415.28
2023-05-02T09:26:33.496Z,102432.19
2023-05-02T09:35:17.361Z,102442.66
2023-05-02T10:03:18.451Z,102494.53
2023-05-02T10:05:56.120Z,102469.41
2023-05-02T10:08:27.646Z,102511.03
2023-05-02T10:17:40.462Z,102477.69
2023-05-02T10:27:34.447Z,102506.97
2023-05-02T10:30:19.341Z,102472.69
2023-05-02T10:35:34.701Z,102499.53
2023-05-02T10:38:11.572Z,102492.47
2023-05-02T10:40:51.205Z,102489.97
2023-05-02T10:43:21.292Z,102496.16
2023-05-02T10:49:02.224Z,102489.50
2023-05-02T10:55:05.432Z,102519.38
2023-05-02T11:01:02.636Z,102493.88
2023-05-02T11:03:55.860Z,102519.53
2023-05-02T11:09:54.393Z,102526.91
2023-05-02T11:12:57.834Z,102528.25
2023-05-02T11:23:04.691Z,102537.50
2023-05-02T11:25:36.724Z,102509.91
2023-05-02T11:41:09.404Z,102518.78
2023-05-02T11:43:53.640Z,102531.59
2023-05-02T11:46:21.406Z,102516.09
2023-05-02T11:55:13.571Z,102520.59
2023-05-02T12:00:56.349Z,102520.84
2023-05-02T12:03:29.160Z,102525.13
2023-05-02T12:12:51.374Z,102542.28
2023-05-02T12:31:18.441Z,102577.13
2023-05-02T12:45:46.386Z,102558.78
2023-05-02T12:52:05.411Z,102557.53
2023-05-02T13:01:32.589Z,102574.09
2023-05-02T13:07:18.400Z,102563.44
2023-05-02T13:12:37.959Z,102568.13
2023-05-02T13:15:29.612Z,102576.66
2023-05-02T13:18:40.844Z,102601.28
2023-05-02T13:24:00.973Z,102585.47
2023-05-02T13:33:08.266Z,102589.56
2023-05-02T13:38:23.084Z,102570.44
2023-05-02T13:41:52.472Z,102607.47
2023-05-02T13:47:59.550Z,102606.91
2023-05-02T13:53:23.348Z,102599.28
2023-05-02T14:02:36.651Z,102575.13
2023-05-02T14:05:06.545Z,102593.66
2023-05-02T14:07:44.132Z,102582.59
2023-05-02T14:10:58.968Z,102607.44
2023-05-02T14:13:36.468Z,102603.00
2023-05-02T14:16:03.829Z,102577.63
2023-05-02T14:18:42.300Z,102577.47
2023-05-02T14:21:23.803Z,102586.38
2023-05-02T14:24:02.613Z,102600.00
2023-05-02T14:26:29.637Z,102591.81
2023-05-02T14:29:09.596Z,102584.41
2023-05-02T14:34:34.709Z,102574.06
2023-05-02T14:37:11.024Z,102569.25
2023-05-02T14:39:37.949Z,102576.53
2023-05-02T14:44:52.591Z,102586.22
2023-05-02T14:47:26.555Z,102603.63
2023-05-02T14:49:56.446Z,102576.41
2023-05-02T14:52:29.634Z,102589.91
2023-05-02T14:55:02.590Z,102588.00
2023-05-02T14:57:38.569Z,102576.97
2023-05-02T15:00:16.669Z,102605.22
2023-05-02T15:03:28.014Z,102607.84
2023-05-02T15:08:51.485Z,102586.44
2023-05-02T15:12:24.650Z,102604.75
2023-05-02T15:23:17.430Z,102583.44
2023-05-02T15:25:51.519Z,102599.03
2023-05-02T15:28:18.522Z,102599.78
2023-05-02T15:34:23.655Z,102604.22
2023-05-02T15:36:54.023Z,102596.19
2023-05-02T15:39:31.500Z,102599.94
2023-05-02T15:42:14.918Z,102600.16
2023-05-02T15:47:26.583Z,102628.91
2023-05-02T15:56:19.439Z,102606.22
2023-05-02T15:58:55.751Z,102616.91
2023-05-02T16:01:30.811Z,102605.25
2023-05-02T16:04:35.617Z,102647.50
2023-05-02T16:07:13.052Z,102619.84
2023-05-02T16:09:48.514Z,102621.97
2023-05-02T16:12:15.560Z,102614.00
2023-05-02T16:14:49.652Z,102615.22
2023-05-02T16:17:19.635Z,102622.91
2023-05-02T16:22:40.551Z,102640.06
2023-05-02T16:25:09.791Z,102662.66
2023-05-02T16:27:51.149Z,102656.34
2023-05-02T16:30:37.764Z,102636.44
2023-05-02T16:33:13.663Z,102625.06
2023-05-02T16:35:43.811Z,102622.50
2023-05-02T16:38:25.482Z,102655.06
2023-05-02T16:40:54.993Z,102641.88
2023-05-02T16:50:25.569Z,102658.88
2023-05-02T16:52:55.307Z,102634.28
2023-05-02T16:55:49.453Z,102652.69
2023-05-02T16:58:21.668Z,102638.94
2023-05-02T17:01:14.653Z,102629.59
2023-05-02T17:04:06.663Z,102630.34
2023-05-02T17:06:33.799Z,102626.53
2023-05-02T17:09:17.682Z,102642.25
2023-05-02T17:11:44.893Z,102624.09
2023-05-02T17:14:22.357Z,102642.97
2023-05-02T17:16:56.613Z,102658.25
2023-05-02T17:19:26.572Z,102642.47
2023-05-02T17:22:04.709Z,102639.78
2023-05-02T17:24:32.486Z,102629.59
2023-05-02T17:27:06.670Z,102649.22
2023-05-02T17:29:34.257Z,102672.22
2023-05-02T17:32:08.560Z,102652.25
2023-05-02T17:34:40.352Z,102677.63
2023-05-02T17:37:14.661Z,102670.94
2023-05-02T17:39:42.466Z,102642.09
2023-05-02T17:42:09.656Z,102668.22
2023-05-02T17:44:43.696Z,102655.59
2023-05-02T17:47:24.251Z,102685.16
2023-05-02T17:49:53.458Z,102671.91
2023-05-02T17:52:27.677Z,102656.78
2023-05-02T17:55:03.162Z,102665.53
2023-05-02T17:57:36.616Z,102656.47
2023-05-02T18:00:14.736Z,102670.59
2023-05-02T18:02:43.543Z,102653.69
2023-05-02T18:05:26.689Z,102660.88
2023-05-02T18:07:55.351Z,102693.91
2023-05-02T18:10:31.338Z,102672.63
2023-05-02T18:12:58.610Z,102668.44
2023-05-02T18:15:34.655Z,102673.84
2023-05-02T18:18:08.744Z,102699.44
2023-05-02T18:20:41.494Z,102701.41
2023-05-02T18:23:17.706Z,102692.94
2023-05-02T18:25:45.414Z,102676.63
2023-05-02T18:28:19.688Z,102701.72
2023-05-02T18:30:46.874Z,102672.25
2023-05-02T18:33:23.639Z,102673.53
2023-05-02T18:35:51.067Z,102689.94
2023-05-02T18:38:24.707Z,102704.84
2023-05-02T18:40:51.990Z,102694.47
2023-05-02T18:43:25.648Z,102698.94
2023-05-02T18:45:53.003Z,102693.25
2023-05-02T18:48:29.673Z,102718.59
2023-05-02T18:51:03.629Z,102696.28
2023-05-02T18:53:37.697Z,102717.16
2023-05-02T18:56:12.924Z,102695.09
2023-05-02T18:58:46.742Z,102701.16
2023-05-02T19:01:15.339Z,102688.34
2023-05-02T19:03:46.325Z,102694.63
2023-05-02T19:09:20.693Z,102710.31
2023-05-02T19:11:54.762Z,102704.19
2023-05-02T19:14:22.300Z,102725.13
2023-05-02T19:16:57.732Z,102703.75
2023-05-02T19:19:34.695Z,102699.06
2023-05-02T19:22:08.646Z,102701.97
2023-05-02T19:24:39.183Z,102702.38
2023-05-02T19:27:17.566Z,102718.41
2023-05-02T19:29:44.897Z,102711.06
2023-05-02T19:32:40.709Z,102709.03
2023-05-02T19:35:14.256Z,102729.72
2023-05-02T19:37:48.754Z,102749.38
2023-05-02T19:40:16.916Z,102731.69
2023-05-02T19:42:47.435Z,102753.66
2023-05-02T19:51:05.655Z,102740.53
2023-05-02T19:53:45.652Z,102726.94
2023-05-02T19:56:19.897Z,102762.81
2023-05-02T19:58:53.825Z,102752.28
2023-05-02T20:01:27.651Z,102747.50
2023-05-02T20:03:55.280Z,102756.56
2023-05-02T20:06:35.759Z,102783.78
2023-05-02T20:09:05.581Z,102764.28
2023-05-02T20:11:39.684Z,102750.81
2023-05-02T20:14:09.552Z,102774.56
2023-05-02T20:16:43.708Z,102779.16
2023-05-02T20:19:11.408Z,102783.91
2023-05-02T20:21:54.472Z,102794.44
2023-05-02T20:24:22.514Z,102786.03
2023-05-02T20:26:58.400Z,102759.50
2023-05-02T20:29:25.804Z,102789.97
2023-05-02T20:34:45.757Z,102778.41
2023-05-02T20:37:22.642Z,102800.16
2023-05-02T20:39:56.907Z,102770.91
2023-05-02T20:42:33.680Z,102769.47
2023-05-02T20:45:09.947Z,102771.31
2023-05-02T20:47:46.680Z,102773.19
2023-05-02T20:50:17.671Z,102800.44
2023-05-02T20:58:29.541Z,102792.72
2023-05-02T21:01:06.288Z,102795.50
2023-05-02T21:03:48.207Z,102804.44
2023-05-02T21:06:29.424Z,102814.16
2023-05-02T21:08:56.941Z,102799.50
2023-05-02T21:11:33.786Z,102795.31
2023-05-02T21:14:01.191Z,102828.34
2023-05-02T21:16:38.418Z,102789.47
2023-05-02T21:19:09.152Z,102832.09
2023-05-02T21:21:48.686Z,102799.31
2023-05-02T21:24:16.269Z,102796.63
2023-05-02T21:27:22.905Z,102828.06
2023-05-02T21:29:50.559Z,102818.66
2023-05-02T21:32:28.616Z,102808.34
2023-05-02T21:34:58.344Z,102821.47
2023-05-02T21:37:32.842Z,102813.03
2023-05-02T21:40:10.115Z,102801.00
2023-05-02T21:42:44.859Z,102801.19
2023-05-02T21:45:22.168Z,102794.53
2023-05-02T21:47:55.894Z,102805.06
2023-05-02T21:50:38.095Z,102809.50
2023-05-02T21:55:58.742Z,102798.53
2023-05-02T21:58:32.793Z,102810.75
2023-05-02T22:01:03.077Z,102797.84
2023-05-02T22:03:37.898Z,102810.16
2023-05-02T22:06:18.767Z,102793.66
2023-05-02T22:08:46.377Z,102802.38
2023-05-02T22:11:23.831Z,102814.75
2023-05-02T22:13:51.513Z,102807.88
2023-05-02T22:16:27.900Z,102816.72
2023-05-02T22:18:55.424Z,102815.00
2023-05-02T22:21:29.767Z,102825.53
2023-05-02T22:24:03.785Z,102801.44
2023-05-02T22:26:30.814Z,102794.59
2023-05-02T22:35:15.629Z,102817.53
2023-05-02T22:37:51.784Z,102799.25
2023-05-02T22:40:25.773Z,102787.97
2023-05-02T22:42:52.736Z,102806.34
2023-05-02T22:45:26.727Z,102805.50
2023-05-02T22:58:11.814Z,102810.94
2023-05-02T23:00:39.007Z,102775.44
2023-05-02T23:03:13.878Z,102795.59
2023-05-02T23:11:57.833Z,102786.47
2023-05-02T23:14:31.794Z,102803.06
2023-05-02T23:17:03.204Z,102798.72
2023-05-02T23:19:36.807Z,102792.88
2023-05-02T23:22:10.900Z,102804.16
2023-05-02T23:24:52.118Z,102786.00
2023-05-02T23:27:46.100Z,102796.47
2023-05-02T23:33:59.290Z,102792.25
2023-05-02T23:36:27.481Z,102804.50
2023-05-02T23:39:04.777Z,102789.75
2023-05-02T23:41:49.154Z,102811.66
2023-05-02T23:44:22.824Z,102826.41
2023-05-02T23:46:58.837Z,102804.72
2023-05-02T23:49:26.932Z,102809.19
2023-05-02T23:52:03.659Z,102791.00
2023-05-02T23:54:32.023Z,102796.31
2023-05-02T23:57:23.878Z,102806.06
2023-05-02T23:59:57.896Z,102799.03
